FDX1425 KMEM-KIAH
Flight info
| Callsign | FDX1425 |
|---|---|
| Flight time | N/A |
| Altitude | 30000 |
| Route | CHLDR5 ANSWA LITTR Q33 SWEUP ZEEKK3 |
| Aircraft | B763/H-SDE3FGHIM3RWXY/LB1 |
Departure
| Time | 2026-05-06 00:08 |
|---|---|
| Airport | Memphis International Airport (KMEM) |
Arrival
| Time | N/A |
|---|---|
| Airport | George Bush Intercontinental Airport (KIAH) |
| Time | Latitude | Longitude | Altitude | Speed | Heading |
|---|---|---|---|---|---|
| 2026-05-05 23:46 | 35.06012 | -89.97113 | 297 ft | 0 kts | 14° |
| 2026-05-05 23:53 | 35.05996 | -89.97117 | 291 ft | 2 kts | 14° |
| 2026-05-05 23:54 | 35.05986 | -89.97121 | 286 ft | 2 kts | 14° |
| 2026-05-05 23:54 | 35.05969 | -89.97124 | 288 ft | 3 kts | 3° |
| 2026-05-05 23:54 | 35.05951 | -89.97125 | 291 ft | 3 kts | 5° |
| 2026-05-05 23:54 | 35.05932 | -89.97124 | 289 ft | 3 kts | 279° |
| 2026-05-05 23:55 | 35.05931 | -89.97118 | 289 ft | 0 kts | 274° |
| 2026-05-05 23:55 | 35.05931 | -89.97119 | 289 ft | 0 kts | 274° |
| 2026-05-05 23:57 | 35.05931 | -89.97120 | 289 ft | 3 kts | 274° |
| 2026-05-05 23:57 | 35.05937 | -89.97211 | 283 ft | 11 kts | 274° |
| 2026-05-05 23:57 | 35.05939 | -89.97282 | 283 ft | 6 kts | 270° |
| 2026-05-05 23:57 | 35.05938 | -89.97383 | 284 ft | 19 kts | 269° |
| 2026-05-05 23:58 | 35.05963 | -89.97590 | 280 ft | 28 kts | 285° |
| 2026-05-05 23:58 | 35.06005 | -89.97807 | 278 ft | 24 kts | 279° |
| 2026-05-05 23:58 | 35.06012 | -89.97994 | 275 ft | 20 kts | 269° |
| 2026-05-05 23:58 | 35.06017 | -89.98150 | 272 ft | 17 kts | 271° |
| 2026-05-05 23:59 | 35.06018 | -89.98281 | 271 ft | 14 kts | 271° |
| 2026-05-05 23:59 | 35.06020 | -89.98382 | 270 ft | 10 kts | 271° |
| 2026-05-05 23:59 | 35.06018 | -89.98470 | 268 ft | 10 kts | 258° |
| 2026-05-05 23:59 | 35.05965 | -89.98514 | 267 ft | 9 kts | 179° |
| 2026-05-06 00:00 | 35.05832 | -89.98505 | 265 ft | 27 kts | 179° |
| 2026-05-06 00:00 | 35.05657 | -89.98508 | 266 ft | 22 kts | 181° |
| 2026-05-06 00:00 | 35.05531 | -89.98512 | 273 ft | 14 kts | 181° |
| 2026-05-06 00:00 | 35.05435 | -89.98513 | 281 ft | 11 kts | 180° |
| 2026-05-06 00:01 | 35.05378 | -89.98512 | 290 ft | 8 kts | 179° |
| 2026-05-06 00:01 | 35.05299 | -89.98511 | 291 ft | 19 kts | 180° |
| 2026-05-06 00:01 | 35.05117 | -89.98522 | 303 ft | 22 kts | 194° |
| 2026-05-06 00:01 | 35.05022 | -89.98572 | 309 ft | 4 kts | 207° |
| 2026-05-06 00:02 | 35.05011 | -89.98579 | 309 ft | 0 kts | 207° |
| 2026-05-06 00:02 | 35.05003 | -89.98584 | 308 ft | 4 kts | 207° |
| 2026-05-06 00:02 | 35.04988 | -89.98594 | 309 ft | 1 kts | 207° |
| 2026-05-06 00:06 | 35.04955 | -89.98622 | 312 ft | 8 kts | 223° |
| 2026-05-06 00:06 | 35.04936 | -89.98675 | 310 ft | 8 kts | 258° |
| 2026-05-06 00:06 | 35.04923 | -89.98740 | 309 ft | 2 kts | 245° |
| 2026-05-06 00:07 | 35.04903 | -89.98743 | 311 ft | 2 kts | 179° |
| 2026-05-06 00:07 | 35.04739 | -89.98741 | 308 ft | 58 kts | 180° |
| 2026-05-06 00:07 | 35.04065 | -89.98730 | 311 ft | 134 kts | 179° |
| 2026-05-06 00:07 | 35.02891 | -89.98699 | 416 ft | 200 kts | 180° |
| 2026-05-06 00:08 | 35.01350 | -89.98690 | 1010 ft | 240 kts | 180° |
| 2026-05-06 00:08 | 34.99598 | -89.98861 | 2043 ft | 256 kts | 198° |
| 2026-05-06 00:08 | 34.98005 | -89.99534 | 4090 ft | 234 kts | 201° |
| 2026-05-06 00:08 | 34.96486 | -90.00182 | 5581 ft | 232 kts | 211° |
| 2026-05-06 00:09 | 34.95353 | -90.01557 | 6770 ft | 233 kts | 244° |
| 2026-05-06 00:09 | 34.94775 | -90.03411 | 8029 ft | 236 kts | 255° |
| 2026-05-06 00:09 | 34.94384 | -90.05360 | 9351 ft | 237 kts | 259° |
| 2026-05-06 00:09 | 34.94135 | -90.07356 | 10543 ft | 242 kts | 267° |
| 2026-05-06 00:10 | 34.94100 | -90.09513 | 11264 ft | 266 kts | 270° |
| 2026-05-06 00:10 | 34.94101 | -90.11846 | 12120 ft | 284 kts | 269° |
| 2026-05-06 00:10 | 34.93953 | -90.14325 | 13095 ft | 301 kts | 266° |
| 2026-05-06 00:10 | 34.93747 | -90.16926 | 14052 ft | 315 kts | 267° |
| 2026-05-06 00:11 | 34.93518 | -90.19627 | 15065 ft | 324 kts | 266° |
| 2026-05-06 00:11 | 34.93359 | -90.22391 | 16265 ft | 329 kts | 268° |
| 2026-05-06 00:11 | 34.93222 | -90.25200 | 17465 ft | 335 kts | 267° |
| 2026-05-06 00:11 | 34.93062 | -90.28055 | 18564 ft | 341 kts | 267° |
| 2026-05-06 00:12 | 34.92889 | -90.30960 | 19537 ft | 347 kts | 267° |
| 2026-05-06 00:12 | 34.92726 | -90.33920 | 20507 ft | 353 kts | 268° |
| 2026-05-06 00:12 | 34.92554 | -90.36931 | 21488 ft | 359 kts | 268° |
| 2026-05-06 00:12 | 34.92377 | -90.39992 | 22470 ft | 366 kts | 268° |
| 2026-05-06 00:13 | 34.92199 | -90.43115 | 23423 ft | 372 kts | 269° |
| 2026-05-06 00:13 | 34.92018 | -90.46278 | 24289 ft | 376 kts | 268° |
| 2026-05-06 00:13 | 34.91832 | -90.49469 | 25187 ft | 379 kts | 268° |
| 2026-05-06 00:13 | 34.91644 | -90.52684 | 26092 ft | 382 kts | 268° |
| 2026-05-06 00:14 | 34.91453 | -90.55931 | 26959 ft | 386 kts | 268° |
| 2026-05-06 00:14 | 34.91259 | -90.59211 | 27844 ft | 390 kts | 268° |
| 2026-05-06 00:14 | 34.91064 | -90.62510 | 28791 ft | 390 kts | 268° |
| 2026-05-06 00:14 | 34.90869 | -90.65804 | 29397 ft | 393 kts | 268° |
| 2026-05-06 00:15 | 34.90676 | -90.69194 | 29640 ft | 410 kts | 268° |
| 2026-05-06 00:15 | 34.90477 | -90.72740 | 29749 ft | 429 kts | 266° |
| 2026-05-06 00:15 | 34.89911 | -90.76408 | 29804 ft | 450 kts | 262° |
| 2026-05-06 00:16 | 34.88768 | -90.83981 | 29799 ft | 456 kts | 262° |
| 2026-05-06 00:16 | 34.87602 | -90.91564 | 29786 ft | 455 kts | 262° |
| 2026-05-06 00:17 | 34.86440 | -90.99151 | 29786 ft | 456 kts | 262° |
| 2026-05-06 00:17 | 34.85279 | -91.06676 | 29790 ft | 456 kts | 262° |
| 2026-05-06 00:18 | 34.84103 | -91.14258 | 29792 ft | 456 kts | 262° |
| 2026-05-06 00:18 | 34.82923 | -91.21839 | 29792 ft | 455 kts | 262° |
| 2026-05-06 00:19 | 34.81740 | -91.29411 | 29796 ft | 455 kts | 262° |
| 2026-05-06 00:19 | 34.80553 | -91.36983 | 29798 ft | 455 kts | 262° |
| 2026-05-06 00:20 | 34.79360 | -91.44553 | 29800 ft | 455 kts | 262° |
| 2026-05-06 00:20 | 34.78166 | -91.52109 | 29796 ft | 455 kts | 262° |